Decoded Metar for GMMX (MARRAKECH in MOROCCO) (IATA:RAK) | Meteo·Mobile Aviation Weather
aviador You're here:

GMMX Decoded Metar

MARRAKECH in MOROCCO
Report Time2018-12-11 09:00:00
UTC Time2018-12-11 09:32:25
Flight Rules mvfr MVFR
Wind090° at 05 kt
W.Decomp.*RWY 10: 5.0 kt HW 0.6 kt LCW
W.Rank090° ranks 17
Current wind is above 090° avg. (4.9)
Visibility6000 m
Phenomena:N/A
Clouds:N/A
Expected CloudBase > 1,600 ft AGL from Temp-Dew spread
CeilingNone
Temp11°C (ISA -1)
Dew Point07°C (77% RH)
AAT8.5°C
QNH1024 hPa
Density Alt1,184 ft
Elevation1,529 ft
Report Wrong Elevation
Raw Report
GMMX 110900Z 09005KT 6000 NSC 11/07 Q1024 NOSIG=

Extra information for GMMX:More info

Metar Taf Metar & Taf Last 4 Metars F.Rules Stats Wind Profile Meteogram Temp Stats Airport Information Weather charts Add Link Nearby VenuesMetar ALERT Operation Metar Decoded Social comments